SHT15D EGJB-EGLL
Flight info
| Callsign | SHT15D |
|---|---|
| Flight time | 0h 34m |
| Altitude | 19000 |
| Route | ORIST1F ORIST L982 ROXOG ROXOG1H |
| Aircraft | A319/M-SDE3FGIJ1KRWXY/LB1 |
Departure
| Time | 2026-04-26 14:00 |
|---|---|
| Airport | Guernsey Airport (EGJB) |
Arrival
| Time | 2026-04-26 14:34 |
|---|---|
| Airport | London Heathrow Airport (EGLL) |
| Time | Latitude | Longitude | Altitude | Speed | Heading |
|---|---|---|---|---|---|
| 2026-04-26 13:30 | 49.43296 | -2.59454 | 333 ft | 0 kts | 176° |
| 2026-04-26 13:51 | 49.43310 | -2.59457 | 333 ft | 2 kts | 174° |
| 2026-04-26 13:51 | 49.43325 | -2.59458 | 333 ft | 2 kts | 187° |
| 2026-04-26 13:51 | 49.43339 | -2.59451 | 333 ft | 2 kts | 205° |
| 2026-04-26 13:51 | 49.43352 | -2.59439 | 333 ft | 2 kts | 222° |
| 2026-04-26 13:52 | 49.43362 | -2.59422 | 333 ft | 2 kts | 239° |
| 2026-04-26 13:52 | 49.43368 | -2.59401 | 333 ft | 2 kts | 256° |
| 2026-04-26 13:52 | 49.43369 | -2.59387 | 333 ft | 0 kts | 267° |
| 2026-04-26 13:52 | 49.43369 | -2.59377 | 333 ft | 0 kts | 269° |
| 2026-04-26 13:54 | 49.43369 | -2.59392 | 333 ft | 3 kts | 269° |
| 2026-04-26 13:54 | 49.43368 | -2.59428 | 333 ft | 4 kts | 268° |
| 2026-04-26 13:55 | 49.43362 | -2.59602 | 331 ft | 11 kts | 265° |
| 2026-04-26 13:55 | 49.43359 | -2.59664 | 330 ft | 6 kts | 269° |
| 2026-04-26 13:55 | 49.43344 | -2.59933 | 325 ft | 13 kts | 269° |
| 2026-04-26 13:56 | 49.43341 | -2.60095 | 322 ft | 17 kts | 265° |
| 2026-04-26 13:56 | 49.43334 | -2.60264 | 318 ft | 15 kts | 266° |
| 2026-04-26 13:56 | 49.43328 | -2.60460 | 312 ft | 20 kts | 267° |
| 2026-04-26 13:56 | 49.43329 | -2.60640 | 307 ft | 14 kts | 280° |
| 2026-04-26 13:57 | 49.43349 | -2.60811 | 304 ft | 18 kts | 280° |
| 2026-04-26 13:57 | 49.43364 | -2.60999 | 300 ft | 16 kts | 271° |
| 2026-04-26 13:57 | 49.43358 | -2.61175 | 298 ft | 14 kts | 266° |
| 2026-04-26 13:57 | 49.43387 | -2.61305 | 297 ft | 14 kts | 315° |
| 2026-04-26 13:58 | 49.43435 | -2.61360 | 297 ft | 4 kts | 352° |
| 2026-04-26 13:58 | 49.43467 | -2.61341 | 297 ft | 5 kts | 58° |
| 2026-04-26 13:58 | 49.43468 | -2.61332 | 297 ft | 0 kts | 86° |
| 2026-04-26 13:59 | 49.43470 | -2.61227 | 298 ft | 41 kts | 89° |
| 2026-04-26 13:59 | 49.43491 | -2.60352 | 316 ft | 120 kts | 88° |
| 2026-04-26 13:59 | 49.43549 | -2.58792 | 593 ft | 159 kts | 88° |
| 2026-04-26 14:00 | 49.43634 | -2.53789 | 2977 ft | 171 kts | 88° |
| 2026-04-26 14:00 | 49.43669 | -2.51897 | 3636 ft | 187 kts | 87° |
| 2026-04-26 14:00 | 49.43776 | -2.50545 | 4046 ft | 201 kts | 72° |
| 2026-04-26 14:01 | 49.45056 | -2.48427 | 5002 ft | 223 kts | 19° |
| 2026-04-26 14:01 | 49.46561 | -2.47871 | 5989 ft | 227 kts | 11° |
| 2026-04-26 14:01 | 49.48098 | -2.47352 | 6977 ft | 231 kts | 12° |
| 2026-04-26 14:01 | 49.49681 | -2.46785 | 7735 ft | 246 kts | 12° |
| 2026-04-26 14:02 | 49.51392 | -2.46152 | 8404 ft | 264 kts | 13° |
| 2026-04-26 14:02 | 49.53249 | -2.45452 | 9096 ft | 282 kts | 13° |
| 2026-04-26 14:02 | 49.55169 | -2.44721 | 9979 ft | 290 kts | 13° |
| 2026-04-26 14:02 | 49.57106 | -2.43979 | 10913 ft | 294 kts | 12° |
| 2026-04-26 14:03 | 49.59086 | -2.43220 | 11817 ft | 298 kts | 12° |
| 2026-04-26 14:03 | 49.61119 | -2.42441 | 12686 ft | 302 kts | 12° |
| 2026-04-26 14:03 | 49.63141 | -2.41667 | 13498 ft | 306 kts | 12° |
| 2026-04-26 14:03 | 49.65215 | -2.40871 | 14308 ft | 311 kts | 12° |
| 2026-04-26 14:04 | 49.67331 | -2.40059 | 15105 ft | 315 kts | 11° |
| 2026-04-26 14:04 | 49.69413 | -2.39019 | 15861 ft | 321 kts | 24° |
| 2026-04-26 14:04 | 49.71265 | -2.37110 | 16575 ft | 330 kts | 40° |
| 2026-04-26 14:04 | 49.72871 | -2.34460 | 17011 ft | 345 kts | 48° |
| 2026-04-26 14:05 | 49.74413 | -2.31595 | 17559 ft | 355 kts | 49° |
| 2026-04-26 14:05 | 49.75986 | -2.28628 | 18275 ft | 359 kts | 49° |
| 2026-04-26 14:05 | 49.77580 | -2.25653 | 18871 ft | 363 kts | 49° |
| 2026-04-26 14:05 | 49.79214 | -2.22632 | 19438 ft | 368 kts | 49° |
| 2026-04-26 14:06 | 49.80829 | -2.19666 | 20326 ft | 365 kts | 49° |
| 2026-04-26 14:06 | 49.82473 | -2.16653 | 21110 ft | 366 kts | 49° |
| 2026-04-26 14:06 | 49.84117 | -2.13641 | 21772 ft | 369 kts | 49° |
| 2026-04-26 14:06 | 49.85762 | -2.10627 | 22406 ft | 372 kts | 49° |
| 2026-04-26 14:07 | 49.87445 | -2.07543 | 22971 ft | 376 kts | 49° |
| 2026-04-26 14:07 | 49.89133 | -2.04444 | 23224 ft | 378 kts | 49° |
| 2026-04-26 14:07 | 49.90818 | -2.01347 | 23254 ft | 378 kts | 49° |
| 2026-04-26 14:07 | 49.92506 | -1.98243 | 23261 ft | 377 kts | 49° |
| 2026-04-26 14:08 | 49.94198 | -1.95126 | 23265 ft | 377 kts | 49° |
| 2026-04-26 14:08 | 49.95887 | -1.92013 | 23269 ft | 377 kts | 49° |
| 2026-04-26 14:08 | 49.97572 | -1.88903 | 23273 ft | 377 kts | 49° |
| 2026-04-26 14:08 | 49.98952 | -1.86497 | 23267 ft | 376 kts | 43° |
| 2026-04-26 14:09 | 49.99739 | -1.85353 | 23267 ft | 375 kts | 39° |
| 2026-04-26 14:09 | 50.01824 | -1.82981 | 23267 ft | 373 kts | 29° |
| 2026-04-26 14:09 | 50.04105 | -1.81062 | 23270 ft | 373 kts | 25° |
| 2026-04-26 14:09 | 50.06431 | -1.79266 | 23270 ft | 373 kts | 24° |
| 2026-04-26 14:10 | 50.08736 | -1.77493 | 23269 ft | 373 kts | 24° |
| 2026-04-26 14:10 | 50.11050 | -1.75600 | 23272 ft | 374 kts | 28° |
| 2026-04-26 14:10 | 50.13238 | -1.73421 | 23275 ft | 375 kts | 33° |
| 2026-04-26 14:10 | 50.15313 | -1.70933 | 23273 ft | 375 kts | 37° |
| 2026-04-26 14:11 | 50.19322 | -1.65710 | 23274 ft | 376 kts | 38° |
| 2026-04-26 14:11 | 50.21298 | -1.63125 | 23271 ft | 376 kts | 38° |
| 2026-04-26 14:11 | 50.23323 | -1.60485 | 23271 ft | 375 kts | 38° |
| 2026-04-26 14:12 | 50.25340 | -1.57979 | 23267 ft | 374 kts | 32° |
| 2026-04-26 14:12 | 50.27572 | -1.55933 | 23270 ft | 372 kts | 22° |
| 2026-04-26 14:12 | 50.29962 | -1.54469 | 23277 ft | 370 kts | 15° |
| 2026-04-26 14:12 | 50.32408 | -1.53261 | 23050 ft | 369 kts | 14° |
| 2026-04-26 14:13 | 50.37294 | -1.50944 | 22556 ft | 366 kts | 14° |
| 2026-04-26 14:13 | 50.39715 | -1.49777 | 22313 ft | 364 kts | 14° |
| 2026-04-26 14:13 | 50.42146 | -1.48592 | 22063 ft | 363 kts | 14° |
| 2026-04-26 14:14 | 50.44521 | -1.47426 | 21823 ft | 361 kts | 14° |
| 2026-04-26 14:14 | 50.46926 | -1.46242 | 21571 ft | 359 kts | 14° |
| 2026-04-26 14:14 | 50.49287 | -1.45079 | 21316 ft | 357 kts | 14° |
| 2026-04-26 14:14 | 50.50656 | -1.44403 | 21172 ft | 356 kts | 15° |
| 2026-04-26 14:15 | 50.52509 | -1.43410 | 20970 ft | 356 kts | 18° |
| 2026-04-26 14:15 | 50.54781 | -1.41921 | 20723 ft | 356 kts | 22° |
| 2026-04-26 14:15 | 50.56997 | -1.40154 | 20477 ft | 355 kts | 26° |
| 2026-04-26 14:15 | 50.59147 | -1.38313 | 20226 ft | 354 kts | 26° |
| 2026-04-26 14:16 | 50.61291 | -1.36452 | 20001 ft | 353 kts | 26° |
| 2026-04-26 14:16 | 50.63444 | -1.34583 | 19769 ft | 351 kts | 27° |
| 2026-04-26 14:16 | 50.65591 | -1.32714 | 19564 ft | 350 kts | 27° |
| 2026-04-26 14:16 | 50.67694 | -1.30885 | 19302 ft | 349 kts | 27° |
| 2026-04-26 14:17 | 50.69814 | -1.29049 | 18981 ft | 347 kts | 27° |
| 2026-04-26 14:17 | 50.71924 | -1.27225 | 18635 ft | 345 kts | 27° |
| 2026-04-26 14:17 | 50.74012 | -1.25421 | 18267 ft | 343 kts | 27° |
| 2026-04-26 14:17 | 50.76087 | -1.23598 | 17923 ft | 342 kts | 29° |
| 2026-04-26 14:18 | 50.78094 | -1.21617 | 17543 ft | 341 kts | 32° |
| 2026-04-26 14:18 | 50.80085 | -1.19571 | 17151 ft | 339 kts | 32° |
| 2026-04-26 14:18 | 50.82029 | -1.17558 | 16795 ft | 338 kts | 32° |
| 2026-04-26 14:18 | 50.84000 | -1.15516 | 16415 ft | 336 kts | 32° |
| 2026-04-26 14:19 | 50.85935 | -1.13514 | 16061 ft | 334 kts | 32° |
| 2026-04-26 14:19 | 50.87880 | -1.11501 | 15686 ft | 332 kts | 32° |
| 2026-04-26 14:19 | 50.89808 | -1.09505 | 15338 ft | 331 kts | 32° |
| 2026-04-26 14:19 | 50.91708 | -1.07537 | 14962 ft | 330 kts | 32° |
| 2026-04-26 14:20 | 50.93633 | -1.05541 | 14607 ft | 328 kts | 32° |
| 2026-04-26 14:20 | 50.95519 | -1.03582 | 14229 ft | 327 kts | 32° |
| 2026-04-26 14:20 | 50.97423 | -1.01604 | 13873 ft | 325 kts | 32° |
| 2026-04-26 14:20 | 50.99298 | -0.99609 | 13504 ft | 324 kts | 36° |
| 2026-04-26 14:21 | 51.01033 | -0.97338 | 13134 ft | 322 kts | 43° |
| 2026-04-26 14:21 | 51.02563 | -0.94819 | 12932 ft | 314 kts | 47° |
| 2026-04-26 14:21 | 51.03994 | -0.92279 | 12629 ft | 310 kts | 48° |
| 2026-04-26 14:21 | 51.05421 | -0.89711 | 12264 ft | 309 kts | 48° |
| 2026-04-26 14:22 | 51.06832 | -0.87176 | 11896 ft | 306 kts | 48° |
| 2026-04-26 14:22 | 51.08231 | -0.84669 | 11578 ft | 304 kts | 48° |
| 2026-04-26 14:22 | 51.09637 | -0.82155 | 11222 ft | 302 kts | 48° |
| 2026-04-26 14:22 | 51.11028 | -0.79677 | 10849 ft | 300 kts | 47° |
| 2026-04-26 14:23 | 51.12412 | -0.77228 | 10585 ft | 295 kts | 48° |
| 2026-04-26 14:23 | 51.13756 | -0.74837 | 10319 ft | 291 kts | 48° |
| 2026-04-26 14:23 | 51.15105 | -0.72428 | 10074 ft | 285 kts | 48° |
| 2026-04-26 14:23 | 51.16396 | -0.70116 | 9921 ft | 277 kts | 48° |
| 2026-04-26 14:24 | 51.17667 | -0.67839 | 9769 ft | 269 kts | 48° |
| 2026-04-26 14:24 | 51.18953 | -0.65775 | 9509 ft | 266 kts | 35° |
| 2026-04-26 14:24 | 51.20668 | -0.64663 | 8992 ft | 269 kts | 5° |
| 2026-04-26 14:24 | 51.22467 | -0.65040 | 8812 ft | 256 kts | 339° |
| 2026-04-26 14:25 | 51.24056 | -0.66200 | 8645 ft | 249 kts | 332° |
| 2026-04-26 14:25 | 51.25563 | -0.67478 | 8372 ft | 247 kts | 331° |
| 2026-04-26 14:25 | 51.27076 | -0.68794 | 8079 ft | 246 kts | 331° |
| 2026-04-26 14:25 | 51.28575 | -0.70117 | 7789 ft | 245 kts | 330° |
| 2026-04-26 14:26 | 51.30057 | -0.71434 | 7512 ft | 244 kts | 330° |
| 2026-04-26 14:26 | 51.31540 | -0.72760 | 7216 ft | 244 kts | 330° |
| 2026-04-26 14:26 | 51.33015 | -0.74086 | 6929 ft | 243 kts | 330° |
| 2026-04-26 14:26 | 51.34484 | -0.75411 | 6648 ft | 242 kts | 330° |
| 2026-04-26 14:27 | 51.35933 | -0.76724 | 6364 ft | 242 kts | 330° |
| 2026-04-26 14:27 | 51.37401 | -0.78052 | 6080 ft | 241 kts | 330° |
| 2026-04-26 14:27 | 51.38850 | -0.79369 | 5794 ft | 241 kts | 330° |
| 2026-04-26 14:27 | 51.40311 | -0.80699 | 5517 ft | 240 kts | 330° |
| 2026-04-26 14:28 | 51.41763 | -0.82018 | 5250 ft | 239 kts | 330° |
| 2026-04-26 14:28 | 51.43263 | -0.83102 | 4966 ft | 237 kts | 350° |
| 2026-04-26 14:28 | 51.44861 | -0.82937 | 4727 ft | 232 kts | 21° |
| 2026-04-26 14:28 | 51.46144 | -0.81460 | 4465 ft | 229 kts | 54° |
| 2026-04-26 14:29 | 51.46884 | -0.79233 | 4161 ft | 230 kts | 67° |
| 2026-04-26 14:29 | 51.47385 | -0.76833 | 3685 ft | 221 kts | 78° |
| 2026-04-26 14:29 | 51.47595 | -0.74474 | 3299 ft | 208 kts | 85° |
| 2026-04-26 14:29 | 51.47685 | -0.72234 | 3030 ft | 191 kts | 88° |
| 2026-04-26 14:30 | 51.47720 | -0.70182 | 3002 ft | 183 kts | 89° |
| 2026-04-26 14:30 | 51.47728 | -0.68137 | 2595 ft | 187 kts | 90° |
| 2026-04-26 14:30 | 51.47726 | -0.66103 | 2216 ft | 178 kts | 90° |
| 2026-04-26 14:30 | 51.47725 | -0.64188 | 1942 ft | 161 kts | 90° |
| 2026-04-26 14:31 | 51.47726 | -0.62506 | 1757 ft | 145 kts | 90° |
| 2026-04-26 14:31 | 51.47726 | -0.60955 | 1548 ft | 132 kts | 90° |
| 2026-04-26 14:31 | 51.47718 | -0.59560 | 1357 ft | 122 kts | 90° |
| 2026-04-26 14:31 | 51.47697 | -0.58223 | 1195 ft | 120 kts | 91° |
| 2026-04-26 14:32 | 51.47679 | -0.56854 | 1056 ft | 124 kts | 90° |
| 2026-04-26 14:32 | 51.47706 | -0.55453 | 891 ft | 125 kts | 86° |
| 2026-04-26 14:32 | 51.47725 | -0.54066 | 767 ft | 125 kts | 90° |
| 2026-04-26 14:32 | 51.47726 | -0.52684 | 647 ft | 121 kts | 89° |
| 2026-04-26 14:33 | 51.47726 | -0.51361 | 450 ft | 118 kts | 88° |
| 2026-04-26 14:33 | 51.47740 | -0.50041 | 291 ft | 118 kts | 89° |
| 2026-04-26 14:33 | 51.47749 | -0.48730 | 149 ft | 118 kts | 90° |
| 2026-04-26 14:33 | 51.47753 | -0.47449 | 93 ft | 101 kts | 90° |
| 2026-04-26 14:34 | 51.47757 | -0.46649 | 93 ft | 63 kts | 89° |
| 2026-04-26 14:34 | 51.47729 | -0.46176 | 92 ft | 21 kts | 148° |
| 2026-04-26 14:34 | 51.47638 | -0.46068 | 92 ft | 12 kts | 142° |
| 2026-04-26 14:34 | 51.47586 | -0.46093 | 92 ft | 9 kts | 255° |
| 2026-04-26 14:35 | 51.47588 | -0.46213 | 92 ft | 11 kts | 273° |
| 2026-04-26 14:35 | 51.47594 | -0.46358 | 92 ft | 14 kts | 274° |
| 2026-04-26 14:35 | 51.47591 | -0.46513 | 92 ft | 12 kts | 267° |
| 2026-04-26 14:35 | 51.47589 | -0.46651 | 92 ft | 13 kts | 270° |
| 2026-04-26 14:36 | 51.47590 | -0.46784 | 92 ft | 10 kts | 269° |
| 2026-04-26 14:36 | 51.47580 | -0.46905 | 92 ft | 11 kts | 265° |
| 2026-04-26 14:36 | 51.47582 | -0.47041 | 92 ft | 13 kts | 271° |
| 2026-04-26 14:36 | 51.47581 | -0.47196 | 92 ft | 15 kts | 269° |
| 2026-04-26 14:37 | 51.47580 | -0.47366 | 93 ft | 13 kts | 268° |
| 2026-04-26 14:37 | 51.47578 | -0.47528 | 93 ft | 15 kts | 270° |
| 2026-04-26 14:37 | 51.47578 | -0.47682 | 93 ft | 13 kts | 269° |
| 2026-04-26 14:37 | 51.47578 | -0.47840 | 93 ft | 15 kts | 269° |
| 2026-04-26 14:38 | 51.47578 | -0.47980 | 93 ft | 12 kts | 269° |
| 2026-04-26 14:38 | 51.47577 | -0.48113 | 93 ft | 12 kts | 269° |
| 2026-04-26 14:38 | 51.47576 | -0.48265 | 93 ft | 14 kts | 269° |
| 2026-04-26 14:38 | 51.47575 | -0.48396 | 93 ft | 12 kts | 269° |
| 2026-04-26 14:39 | 51.47575 | -0.48548 | 93 ft | 14 kts | 270° |
| 2026-04-26 14:39 | 51.47575 | -0.48712 | 93 ft | 12 kts | 269° |
| 2026-04-26 14:39 | 51.47574 | -0.48833 | 93 ft | 9 kts | 269° |
| 2026-04-26 14:39 | 51.47573 | -0.48923 | 93 ft | 7 kts | 266° |
| 2026-04-26 14:40 | 51.47529 | -0.48963 | 93 ft | 7 kts | 167° |
| 2026-04-26 14:40 | 51.47496 | -0.48955 | 93 ft | 5 kts | 179° |
| 2026-04-26 14:40 | 51.47459 | -0.48954 | 93 ft | 4 kts | 179° |
| 2026-04-26 14:40 | 51.47432 | -0.48954 | 93 ft | 2 kts | 180° |
| 2026-04-26 14:41 | 51.47418 | -0.48954 | 93 ft | 1 kts | 180° |
| 2026-04-26 14:41 | 51.47416 | -0.48954 | 93 ft | 0 kts | 180° |